Lake Camelot, Illinois
Current Conditions -  °F | °C
As of 12:54 PM on Saturday 20 Dec 2014 (Local Time) from KPIA Reporting Station
Overcast Overcast  
Wind Chill: 30°   Ceiling: 3600
Heat Index: 36°   Visibility: 7mi
Dew Point: 26°   Wind: 7mph
Humidity: 67%   Direction: 180°S
Pressure: 30.24"   Gusts: NA
Location:  40.5976°N, 89.727°W
Report Text: KPIA 201854Z 18006KT 7SM BKN036 BKN043 OVC055 02/M03 A3024 RMK AO2 SLP247 T00221033
Loading
Personal Weather Stations






























Interactive Weather Map New forecast layout! Learn more

10-Day Weather Forecast

Advertisements
Track Severe Weather on mobile